Benutzungsordnung PDF Drucken E-Mail

 

 

Die Benutzungsordnung für den Verkehrslandeplatz Uetersen/Heist wurde am 01.01./10.01.2006 neu gefasst und von der zuständigen Landesbehörde in Schleswig-Holstein genehmigt und in Kraft gesetzt. Die Benutzungsordnung regelt die Rechte und Pflichten zwischen den Benutzern und dem Halter des Verkehrslandeplatzes. Die öffentlichen Vorschriften für die Benutzung des Verkehrslandeplatzes bleiben unberührt.

Für Fahrzeuge gilt die Straßenbenutzungsordnung.

 

Sie können die Benutzungsordnung hier als PDF-Datei herunterladen.

 

 

(Zum Öffnen benötigen Sie den Adobe Acrobat Reader, den Sie kostenfrei unter http://get.adobe.com/de/reader/ herunterladen können)

 

Zufallsbild

Aktuelle Termine

Mo Di Mi Do Fr Sa So
30 31 1 2 3 4 5
6 7 8 9 10 11 12
13 14 15 16 17 18 19
20 21 22 23 24 25 26
27 28 29 30 1 2 3

Pilotenwetter

[source: ADDS]
METAR
EDDH 212050Z 13007KT 100V160 4900 -RADZ SCT003 OVC004 06/05 Q1006 NOSIG =
TAF
TAF EDDH 211700Z 2118/2224 12007KT 4000 -RADZ SCT003 BKN007 TEMPO 2118/2206 2500 DZRA BKN003 PROB30 TEMPO 2118/2124 6000 BECMG 2122/2124 21010KT BECMG 2203/2206 22015G25KT BECMG 2208/2211 6000 BECMG 2213/2216 SCT008 BKN012 BECMG 2216/2218 SCT012 =